createdAt,value
2024-02-29T00:01:16.742Z,13.73
2024-02-29T00:03:43.857Z,12.27
2024-02-29T00:06:11.000Z,12.57
2024-02-29T00:08:38.149Z,12.18
2024-02-29T00:11:06.838Z,12.18
2024-02-29T00:13:34.016Z,12.88
2024-02-29T00:16:01.251Z,12.68
2024-02-29T00:18:28.326Z,12.75
2024-02-29T00:20:55.477Z,12.60
2024-02-29T00:23:22.541Z,13.10
2024-02-29T00:25:49.619Z,13.07
2024-02-29T00:28:16.726Z,11.68
2024-02-29T00:30:43.889Z,13.57
2024-02-29T00:33:11.027Z,11.50
2024-02-29T00:35:38.166Z,10.75
2024-02-29T00:38:05.372Z,13.07
2024-02-29T00:40:32.609Z,13.38
2024-02-29T00:42:59.915Z,12.48
2024-02-29T00:45:27.637Z,12.30
2024-02-29T00:47:56.122Z,11.70
2024-02-29T00:50:23.395Z,12.45
2024-02-29T00:52:50.551Z,12.50
2024-02-29T00:55:18.014Z,12.30
2024-02-29T00:57:52.732Z,10.55
2024-02-29T01:00:20.025Z,11.68
2024-02-29T01:02:47.082Z,12.20
2024-02-29T01:05:15.813Z,12.52
2024-02-29T01:07:42.912Z,13.65
2024-02-29T01:10:13.262Z,10.95
2024-02-29T01:12:42.818Z,13.57
2024-02-29T01:17:37.466Z,11.70
2024-02-29T01:20:08.621Z,13.23
2024-02-29T01:22:36.297Z,10.75
2024-02-29T01:25:04.031Z,12.65
2024-02-29T01:27:31.243Z,12.35
2024-02-29T01:29:58.382Z,12.63
2024-02-29T01:32:28.165Z,12.30
2024-02-29T01:34:57.137Z,12.27
2024-02-29T01:37:24.206Z,13.23
2024-02-29T01:39:51.304Z,13.52
2024-02-29T01:42:18.380Z,11.95
2024-02-29T01:44:51.710Z,12.32
2024-02-29T01:47:18.764Z,10.52
2024-02-29T01:49:47.405Z,13.65
2024-02-29T01:52:16.571Z,13.85
2024-02-29T01:54:47.536Z,12.02
2024-02-29T01:57:14.678Z,13.80
2024-02-29T01:59:43.150Z,13.68
2024-02-29T02:02:10.218Z,11.25
2024-02-29T02:04:37.285Z,12.48
2024-02-29T02:07:05.747Z,12.48
2024-02-29T02:09:33.055Z,12.93
2024-02-29T02:12:00.176Z,12.20
2024-02-29T02:14:27.314Z,11.70
2024-02-29T02:16:54.432Z,12.73
2024-02-29T02:19:21.511Z,11.63
2024-02-29T02:21:48.659Z,12.35
2024-02-29T02:24:15.752Z,12.50
2024-02-29T02:26:42.815Z,13.52
2024-02-29T02:29:09.884Z,11.02
2024-02-29T02:31:37.243Z,12.75
2024-02-29T02:34:05.233Z,13.02
2024-02-29T02:36:32.328Z,11.65
2024-02-29T02:38:59.459Z,11.07
2024-02-29T02:41:26.526Z,12.85
2024-02-29T02:43:53.776Z,11.80
2024-02-29T02:46:21.036Z,11.77
2024-02-29T02:48:48.132Z,10.88
2024-02-29T02:51:15.252Z,11.95
2024-02-29T02:53:42.366Z,11.77
2024-02-29T02:56:09.429Z,12.93
2024-02-29T02:58:36.893Z,11.68
2024-02-29T03:01:04.334Z,13.38
2024-02-29T03:03:31.401Z,12.52
2024-02-29T03:05:58.491Z,12.07
2024-02-29T03:08:25.553Z,12.63
2024-02-29T03:10:52.670Z,12.55
2024-02-29T03:13:19.872Z,12.13
2024-02-29T03:15:46.963Z,13.10
2024-02-29T03:18:14.076Z,13.68
2024-02-29T03:20:41.145Z,12.18
2024-02-29T03:23:08.257Z,13.30
2024-02-29T03:25:35.360Z,14.07
2024-02-29T03:28:03.753Z,12.52
2024-02-29T03:30:30.920Z,11.32
2024-02-29T03:32:58.153Z,11.80
2024-02-29T03:35:25.368Z,12.85
2024-02-29T03:37:52.462Z,13.63
2024-02-29T03:40:22.303Z,14.60
2024-02-29T03:42:49.552Z,12.40
2024-02-29T03:45:16.781Z,12.95
2024-02-29T03:47:43.920Z,11.52
2024-02-29T03:50:11.356Z,11.93
2024-02-29T03:52:39.722Z,13.10
2024-02-29T03:55:07.298Z,13.68
2024-02-29T03:57:34.418Z,12.18
2024-02-29T04:00:01.561Z,12.00
2024-02-29T04:02:29.092Z,13.80
2024-02-29T04:04:56.298Z,12.63
2024-02-29T04:07:23.448Z,11.13
2024-02-29T04:09:55.730Z,13.70
2024-02-29T04:12:22.997Z,13.30
2024-02-29T04:14:50.142Z,11.75
2024-02-29T04:17:17.232Z,12.10
2024-02-29T04:19:46.369Z,11.63
2024-02-29T04:22:15.037Z,11.57
2024-02-29T04:24:42.311Z,11.60
2024-02-29T04:27:09.440Z,11.02
2024-02-29T04:29:36.561Z,14.57
2024-02-29T04:32:03.624Z,12.10
2024-02-29T04:34:30.814Z,13.60
2024-02-29T04:36:58.130Z,12.35
2024-02-29T04:39:25.200Z,11.60
2024-02-29T04:41:52.371Z,11.68
2024-02-29T04:44:19.495Z,11.70
2024-02-29T04:46:46.623Z,11.20
2024-02-29T04:49:13.814Z,13.32
2024-02-29T04:51:40.978Z,12.95
2024-02-29T04:54:08.527Z,12.32
2024-02-29T04:56:36.624Z,11.57
2024-02-29T04:59:05.644Z,14.10
2024-02-29T05:01:33.495Z,13.13
2024-02-29T05:04:00.753Z,12.50
2024-02-29T05:06:29.003Z,11.75
2024-02-29T05:08:56.170Z,12.40
2024-02-29T05:11:23.274Z,12.65
2024-02-29T05:13:50.445Z,15.00
2024-02-29T05:16:18.402Z,12.02
2024-02-29T05:18:45.675Z,13.68
2024-02-29T05:21:12.796Z,13.77
2024-02-29T05:23:39.832Z,13.68
2024-02-29T05:26:06.985Z,12.73
2024-02-29T05:28:34.783Z,13.60
2024-02-29T05:31:01.855Z,14.25
2024-02-29T05:33:28.946Z,12.65
2024-02-29T05:35:56.006Z,13.35
2024-02-29T05:38:23.089Z,12.60
2024-02-29T05:40:50.363Z,13.95
2024-02-29T05:43:17.489Z,12.93
2024-02-29T05:45:44.901Z,13.73
2024-02-29T05:48:12.141Z,11.70
2024-02-29T05:50:39.313Z,13.82
2024-02-29T05:53:06.401Z,14.85
2024-02-29T05:55:33.660Z,14.57
2024-02-29T05:58:00.829Z,13.30
2024-02-29T06:00:27.939Z,12.63
2024-02-29T06:02:55.140Z,12.70
2024-02-29T06:05:22.256Z,12.68
2024-02-29T06:07:49.342Z,13.65
2024-02-29T06:10:16.684Z,13.45
2024-02-29T06:12:43.817Z,12.23
2024-02-29T06:15:12.082Z,11.98
2024-02-29T06:17:39.896Z,10.93
2024-02-29T06:20:11.656Z,13.85
2024-02-29T06:22:39.697Z,14.63
2024-02-29T06:25:07.142Z,12.00
2024-02-29T06:27:34.407Z,12.55
2024-02-29T06:30:03.158Z,13.93
2024-02-29T06:32:30.261Z,12.88
2024-02-29T06:34:57.348Z,12.15
2024-02-29T06:37:24.436Z,12.90
2024-02-29T06:39:51.538Z,14.50
2024-02-29T06:42:18.576Z,12.93
2024-02-29T06:44:45.635Z,12.82
2024-02-29T06:47:12.698Z,13.82
2024-02-29T06:49:39.740Z,14.40
2024-02-29T06:52:06.881Z,12.52
2024-02-29T06:54:34.075Z,14.40
2024-02-29T06:57:01.145Z,14.20
2024-02-29T06:59:28.222Z,14.98
2024-02-29T07:01:55.383Z,17.05
2024-02-29T07:04:22.557Z,15.60
2024-02-29T07:06:49.677Z,13.48
2024-02-29T07:09:16.729Z,14.68
2024-02-29T07:11:43.797Z,15.60
2024-02-29T07:14:10.891Z,14.93
2024-02-29T07:16:39.580Z,14.32
2024-02-29T07:19:06.868Z,11.93
2024-02-29T07:21:36.909Z,14.00
2024-02-29T07:24:04.744Z,14.60
2024-02-29T07:26:32.225Z,13.27
2024-02-29T07:28:59.818Z,12.73
2024-02-29T07:31:27.490Z,14.45
2024-02-29T07:33:55.487Z,14.85
2024-02-29T07:36:23.657Z,15.05
2024-02-29T07:38:50.707Z,13.30
2024-02-29T07:41:17.819Z,12.70
2024-02-29T07:43:45.028Z,12.73
2024-02-29T07:46:12.142Z,13.82
2024-02-29T07:48:39.285Z,11.90
2024-02-29T07:51:06.495Z,14.02
2024-02-29T07:53:33.704Z,13.63
2024-02-29T07:56:00.788Z,15.68
2024-02-29T07:58:28.047Z,14.68
2024-02-29T08:00:55.321Z,15.95
2024-02-29T08:03:22.488Z,15.40
2024-02-29T08:05:49.605Z,15.80
2024-02-29T08:08:16.667Z,14.68
2024-02-29T08:10:44.249Z,13.90
2024-02-29T08:13:11.370Z,16.10
2024-02-29T08:15:38.464Z,15.82
2024-02-29T08:18:05.668Z,15.38
2024-02-29T08:20:32.757Z,14.35
2024-02-29T08:22:59.816Z,14.02
2024-02-29T08:25:31.763Z,14.10
2024-02-29T08:27:59.014Z,15.30
2024-02-29T08:30:26.261Z,15.52
2024-02-29T08:32:53.420Z,14.25
2024-02-29T08:35:20.520Z,12.43
2024-02-29T08:37:47.728Z,12.85
2024-02-29T08:40:15.475Z,13.88
2024-02-29T08:42:42.829Z,13.63
2024-02-29T08:45:10.431Z,15.05
2024-02-29T08:47:37.618Z,14.80
2024-02-29T08:50:04.911Z,13.07
2024-02-29T08:52:32.986Z,13.80
2024-02-29T08:55:00.348Z,14.63
2024-02-29T08:57:27.462Z,13.60
2024-02-29T08:59:54.545Z,15.25
2024-02-29T09:02:21.721Z,14.95
2024-02-29T09:04:49.172Z,13.90
2024-02-29T09:07:16.363Z,15.35
2024-02-29T09:09:43.744Z,17.17
2024-02-29T09:12:11.694Z,14.68
2024-02-29T09:14:39.054Z,16.13
2024-02-29T09:17:07.279Z,14.95
2024-02-29T09:19:34.880Z,16.30
2024-02-29T09:22:02.360Z,17.23
2024-02-29T09:24:32.548Z,16.63
2024-02-29T09:26:59.688Z,14.88
2024-02-29T09:29:27.663Z,15.35
2024-02-29T09:31:55.459Z,15.45
2024-02-29T09:34:22.525Z,16.77
2024-02-29T09:36:50.424Z,16.70
2024-02-29T09:39:17.580Z,14.95
2024-02-29T09:42:00.034Z,15.95
2024-02-29T09:44:32.637Z,15.00
2024-02-29T09:46:59.846Z,14.60
2024-02-29T09:49:29.205Z,15.82
2024-02-29T09:51:56.357Z,12.98
2024-02-29T09:54:23.752Z,15.32
2024-02-29T09:56:50.872Z,15.32
2024-02-29T09:59:18.599Z,13.13
2024-02-29T10:01:46.455Z,17.20
2024-02-29T10:04:13.677Z,15.27
2024-02-29T10:06:40.945Z,14.73
2024-02-29T10:09:08.400Z,15.60
2024-02-29T10:11:40.518Z,15.68
2024-02-29T10:14:19.407Z,14.32
2024-02-29T10:16:50.473Z,15.30
2024-02-29T10:19:17.658Z,15.20
2024-02-29T10:21:44.813Z,16.52
2024-02-29T10:24:11.944Z,15.88
2024-02-29T10:26:39.172Z,15.02
2024-02-29T10:29:07.079Z,15.32
2024-02-29T10:31:34.518Z,15.85
2024-02-29T10:34:01.667Z,17.50
2024-02-29T10:36:28.818Z,15.07
2024-02-29T10:38:56.391Z,16.10
2024-02-29T10:41:23.591Z,14.77
2024-02-29T10:43:51.967Z,15.35
2024-02-29T10:46:22.955Z,13.65
2024-02-29T10:48:54.488Z,14.70
2024-02-29T10:51:27.198Z,13.55
2024-02-29T10:54:13.334Z,15.75
2024-02-29T10:56:43.147Z,13.55
2024-02-29T10:59:11.786Z,15.15
2024-02-29T11:01:40.093Z,14.27
2024-02-29T11:04:07.793Z,13.32
2024-02-29T11:06:43.877Z,11.73
2024-02-29T11:09:12.472Z,12.98
2024-02-29T11:11:39.753Z,11.70
2024-02-29T11:14:06.900Z,11.70
2024-02-29T11:16:34.517Z,12.35
2024-02-29T11:19:03.497Z,13.38
2024-02-29T11:21:30.865Z,11.57
2024-02-29T11:24:07.961Z,10.80
2024-02-29T11:26:35.973Z,12.10
2024-02-29T11:29:16.322Z,11.63
2024-02-29T11:31:48.092Z,11.20
2024-02-29T11:34:18.074Z,11.35
2024-02-29T11:36:49.565Z,11.50
2024-02-29T11:39:18.922Z,11.38
2024-02-29T11:44:13.333Z,9.27
2024-02-29T11:46:50.220Z,9.38
2024-02-29T11:49:17.801Z,10.25
2024-02-29T11:51:45.978Z,9.85
2024-02-29T11:54:16.831Z,10.05
2024-02-29T11:56:44.230Z,10.30
2024-02-29T11:59:12.276Z,10.50
2024-02-29T12:01:39.737Z,9.07
2024-02-29T12:04:08.079Z,11.43
2024-02-29T12:06:36.634Z,10.38
2024-02-29T12:09:04.110Z,10.93
2024-02-29T12:11:32.923Z,10.48
2024-02-29T12:14:00.394Z,9.27
2024-02-29T12:16:27.761Z,9.32
2024-02-29T12:18:54.970Z,10.45
2024-02-29T12:21:22.176Z,9.50
2024-02-29T12:23:51.323Z,11.82
2024-02-29T12:26:18.532Z,10.48
2024-02-29T12:28:49.082Z,9.88
2024-02-29T12:31:16.571Z,10.65
2024-02-29T12:33:44.706Z,11.73
2024-02-29T12:36:17.299Z,11.38
2024-02-29T12:38:45.557Z,10.80
2024-02-29T12:41:14.335Z,10.98
2024-02-29T12:43:47.627Z,10.98
2024-02-29T12:46:16.097Z,10.25
2024-02-29T12:48:43.539Z,11.15
2024-02-29T12:51:11.053Z,10.82
2024-02-29T12:53:38.508Z,10.55
2024-02-29T12:56:06.381Z,8.90
2024-02-29T12:58:34.027Z,9.77
2024-02-29T13:01:01.751Z,9.40
2024-02-29T13:03:29.161Z,8.40
2024-02-29T13:05:56.417Z,9.25
2024-02-29T13:08:23.542Z,9.98
2024-02-29T13:10:51.149Z,11.25
2024-02-29T13:13:18.888Z,10.90
2024-02-29T13:15:46.215Z,12.48
2024-02-29T13:18:13.437Z,9.75
2024-02-29T13:20:41.293Z,11.27
2024-02-29T13:23:09.072Z,10.48
2024-02-29T13:25:36.786Z,10.43
2024-02-29T13:28:05.201Z,9.07
2024-02-29T13:30:32.571Z,10.50
2024-02-29T13:32:59.711Z,10.25
2024-02-29T13:35:27.361Z,11.02
2024-02-29T13:37:54.514Z,9.10
2024-02-29T13:40:21.838Z,10.70
2024-02-29T13:42:49.698Z,10.73
2024-02-29T13:45:16.984Z,10.48
2024-02-29T13:47:48.460Z,10.00
2024-02-29T13:50:15.766Z,10.32
2024-02-29T13:52:44.081Z,9.13
2024-02-29T13:55:11.785Z,11.45
2024-02-29T13:57:39.133Z,10.35
2024-02-29T14:00:07.287Z,10.02
2024-02-29T14:02:34.755Z,8.57
2024-02-29T14:05:01.892Z,10.85
2024-02-29T14:07:29.266Z,10.02
2024-02-29T14:09:56.423Z,10.25
2024-02-29T14:12:25.887Z,10.23
2024-02-29T14:14:53.158Z,10.65
2024-02-29T14:17:20.820Z,11.30
2024-02-29T14:19:47.907Z,10.38
2024-02-29T14:22:15.228Z,10.63
2024-02-29T14:24:42.461Z,10.13
2024-02-29T14:27:09.967Z,10.48
2024-02-29T14:29:37.070Z,10.80
2024-02-29T14:32:04.503Z,10.05
2024-02-29T14:34:33.414Z,10.90
2024-02-29T14:37:01.050Z,10.90
2024-02-29T14:39:28.181Z,8.93
2024-02-29T14:41:55.237Z,10.45
2024-02-29T14:44:22.392Z,11.25
2024-02-29T14:46:49.698Z,10.05
2024-02-29T14:49:16.909Z,9.85
2024-02-29T14:51:44.154Z,10.50
2024-02-29T14:54:11.487Z,9.90
2024-02-29T14:56:38.636Z,12.50
2024-02-29T14:59:05.826Z,10.25
2024-02-29T15:01:33.095Z,10.35
2024-02-29T15:04:00.302Z,11.38
2024-02-29T15:06:27.427Z,11.02
2024-02-29T15:08:54.541Z,9.98
2024-02-29T15:11:23.671Z,11.25
2024-02-29T15:13:52.141Z,10.68
2024-02-29T15:16:20.988Z,9.93
2024-02-29T15:18:48.180Z,10.75
2024-02-29T15:21:15.288Z,11.55
2024-02-29T15:23:42.402Z,11.90
2024-02-29T15:26:12.658Z,11.85
2024-02-29T15:28:48.832Z,11.57
2024-02-29T15:31:19.229Z,12.88
2024-02-29T15:33:46.455Z,14.00
2024-02-29T15:36:13.651Z,11.20
2024-02-29T15:38:40.810Z,13.13
2024-02-29T15:41:08.031Z,12.75
2024-02-29T15:43:35.293Z,11.68
2024-02-29T15:46:02.581Z,12.23
2024-02-29T15:48:34.638Z,12.20
2024-02-29T15:51:01.962Z,14.02
2024-02-29T15:53:29.038Z,12.88
2024-02-29T15:55:56.179Z,13.23
2024-02-29T15:58:23.375Z,15.20
2024-02-29T16:00:50.590Z,14.40
2024-02-29T16:03:17.721Z,13.70
2024-02-29T16:05:44.772Z,15.38
2024-02-29T16:08:11.952Z,13.63
2024-02-29T16:10:39.063Z,13.43
2024-02-29T16:13:07.650Z,12.80
2024-02-29T16:15:34.952Z,15.93
2024-02-29T16:18:02.088Z,15.02
2024-02-29T16:20:29.361Z,14.18
2024-02-29T16:22:56.437Z,14.35
2024-02-29T16:25:23.864Z,14.05
2024-02-29T16:27:52.394Z,13.93
2024-02-29T16:30:19.804Z,14.82
2024-02-29T16:32:47.595Z,13.23
2024-02-29T16:35:15.118Z,16.42
2024-02-29T16:37:42.209Z,15.68
2024-02-29T16:40:09.941Z,16.58
2024-02-29T16:42:37.123Z,14.48
2024-02-29T16:45:04.430Z,15.52
2024-02-29T16:47:31.550Z,15.93
2024-02-29T16:49:59.388Z,13.50
2024-02-29T16:52:26.489Z,13.73
2024-02-29T16:54:54.409Z,16.15
2024-02-29T16:57:21.557Z,15.27
2024-02-29T16:59:48.610Z,13.85
2024-02-29T17:02:18.058Z,12.30
2024-02-29T17:04:47.743Z,14.52
2024-02-29T17:07:15.318Z,14.48
2024-02-29T17:09:42.541Z,14.07
2024-02-29T17:12:11.456Z,12.20
2024-02-29T17:14:39.651Z,15.23
2024-02-29T17:17:09.106Z,15.23
2024-02-29T17:19:36.155Z,13.25
2024-02-29T17:22:03.448Z,14.18
2024-02-29T17:24:30.583Z,14.13
2024-02-29T17:26:57.634Z,13.40
2024-02-29T17:29:24.677Z,13.88
2024-02-29T17:31:51.918Z,14.57
2024-02-29T17:34:19.025Z,15.43
2024-02-29T17:36:46.144Z,14.48
2024-02-29T17:39:13.334Z,14.70
2024-02-29T17:41:40.398Z,13.88
2024-02-29T17:44:07.595Z,16.08
2024-02-29T17:46:34.774Z,14.48
2024-02-29T17:49:01.911Z,16.13
2024-02-29T17:51:29.074Z,14.98
2024-02-29T17:53:57.159Z,17.63
2024-02-29T17:56:24.270Z,16.33
2024-02-29T17:58:51.436Z,16.65
2024-02-29T18:01:18.794Z,15.98
2024-02-29T18:03:46.977Z,15.27
2024-02-29T18:06:14.789Z,16.70
2024-02-29T18:08:42.033Z,16.55
2024-02-29T18:11:09.200Z,15.48
2024-02-29T18:13:37.676Z,15.35
2024-02-29T18:16:08.269Z,15.32
2024-02-29T18:18:35.363Z,16.02
2024-02-29T18:21:02.889Z,17.02
2024-02-29T18:23:29.959Z,23.73
2024-02-29T18:25:57.233Z,21.13
2024-02-29T18:28:24.467Z,20.33
2024-02-29T18:30:51.639Z,19.48
2024-02-29T18:33:18.893Z,18.73
2024-02-29T18:35:47.157Z,18.48
2024-02-29T18:38:14.273Z,19.35
2024-02-29T18:40:41.450Z,20.67
2024-02-29T18:43:08.557Z,22.67
2024-02-29T18:45:35.730Z,17.65
2024-02-29T18:48:02.985Z,18.63
2024-02-29T18:50:30.052Z,18.98
2024-02-29T18:52:58.028Z,17.02
2024-02-29T18:55:25.199Z,15.07
2024-02-29T18:57:52.623Z,14.27
2024-02-29T19:00:20.045Z,13.50
2024-02-29T19:02:47.185Z,15.20
2024-02-29T19:05:14.307Z,14.63
2024-02-29T19:07:41.510Z,12.32
2024-02-29T19:10:10.984Z,14.43
2024-02-29T19:12:39.084Z,14.98
2024-02-29T19:15:08.272Z,13.25
2024-02-29T19:17:35.493Z,14.23
2024-02-29T19:20:07.049Z,14.63
2024-02-29T19:22:36.155Z,13.50
2024-02-29T19:27:30.660Z,13.93
2024-02-29T19:29:57.721Z,13.88
2024-02-29T19:32:24.884Z,13.75
2024-02-29T19:34:51.962Z,15.00
2024-02-29T19:37:19.206Z,15.20
2024-02-29T19:39:48.098Z,12.95
2024-02-29T19:42:15.404Z,13.05
2024-02-29T19:44:42.549Z,14.18
2024-02-29T19:47:09.723Z,13.95
2024-02-29T19:49:39.859Z,17.17
2024-02-29T19:52:07.344Z,14.20
2024-02-29T19:54:35.184Z,15.75
2024-02-29T19:57:02.278Z,14.77
2024-02-29T19:59:29.859Z,15.35
2024-02-29T20:01:56.973Z,15.38
2024-02-29T20:04:27.098Z,15.85
2024-02-29T20:06:56.125Z,15.43
2024-02-29T20:09:23.539Z,15.88
2024-02-29T20:11:50.686Z,14.07
2024-02-29T20:14:17.863Z,15.13
2024-02-29T20:16:44.950Z,15.40
2024-02-29T20:19:13.041Z,13.30
2024-02-29T20:21:41.025Z,14.73
2024-02-29T20:24:08.724Z,15.88
2024-02-29T20:26:39.560Z,14.23
2024-02-29T20:29:06.908Z,17.08
2024-02-29T20:31:34.848Z,13.05
2024-02-29T20:34:02.042Z,13.70
2024-02-29T20:36:30.039Z,17.77
2024-02-29T20:38:57.821Z,15.70
2024-02-29T20:41:24.920Z,16.27
2024-02-29T20:43:52.004Z,17.13
2024-02-29T20:46:19.112Z,16.10
2024-02-29T20:48:46.439Z,14.95
2024-02-29T20:51:13.857Z,15.93
2024-02-29T20:53:40.940Z,16.92
2024-02-29T20:56:08.130Z,15.05
2024-02-29T20:58:36.934Z,15.13
2024-02-29T21:01:04.904Z,15.15
2024-02-29T21:03:32.037Z,13.70
2024-02-29T21:05:59.288Z,14.05
2024-02-29T21:08:36.220Z,15.75
2024-02-29T21:11:03.388Z,15.85
2024-02-29T21:13:33.056Z,14.57
2024-02-29T21:16:00.463Z,17.10
2024-02-29T21:18:27.730Z,15.32
2024-02-29T21:20:55.181Z,15.35
2024-02-29T21:23:22.256Z,16.52
2024-02-29T21:25:49.394Z,14.35
2024-02-29T21:28:16.546Z,15.07
2024-02-29T21:30:43.722Z,15.45
2024-02-29T21:33:10.831Z,15.25
2024-02-29T21:35:38.162Z,15.18
2024-02-29T21:38:05.396Z,14.55
2024-02-29T21:40:32.645Z,15.45
2024-02-29T21:43:00.125Z,15.10
2024-02-29T21:45:27.293Z,16.02
2024-02-29T21:47:54.466Z,17.17
2024-02-29T21:50:22.723Z,15.63
2024-02-29T21:52:50.011Z,15.73
2024-02-29T21:55:17.427Z,13.35
2024-02-29T21:57:44.722Z,15.48
2024-02-29T22:00:13.650Z,16.02
2024-02-29T22:02:43.929Z,13.07
2024-02-29T22:05:11.704Z,14.80
2024-02-29T22:07:38.900Z,15.60
2024-02-29T22:10:06.272Z,13.80
2024-02-29T22:12:33.519Z,14.63
2024-02-29T22:15:00.673Z,15.80
2024-02-29T22:17:27.778Z,16.58
2024-02-29T22:19:54.865Z,16.15
2024-02-29T22:22:21.977Z,16.45
2024-02-29T22:24:49.178Z,15.38
2024-02-29T22:27:16.713Z,15.77
2024-02-29T22:29:43.765Z,16.80
2024-02-29T22:32:10.805Z,17.42
2024-02-29T22:34:37.940Z,16.23
2024-02-29T22:37:05.247Z,15.70
2024-02-29T22:39:32.604Z,15.95
2024-02-29T22:42:02.317Z,15.18
2024-02-29T22:44:30.292Z,14.25
2024-02-29T22:46:57.434Z,14.55
2024-02-29T22:49:24.951Z,16.02
2024-02-29T22:51:52.293Z,15.15
2024-02-29T22:54:19.711Z,15.40
2024-02-29T22:56:46.842Z,16.08
2024-02-29T22:59:14.018Z,16.15
2024-02-29T23:01:45.897Z,15.75
2024-02-29T23:04:13.658Z,13.77
2024-02-29T23:06:41.964Z,15.02
2024-02-29T23:09:09.221Z,15.95
2024-02-29T23:11:36.514Z,15.00
2024-02-29T23:14:03.640Z,14.90
2024-02-29T23:16:30.730Z,16.30
2024-02-29T23:18:57.920Z,14.88
2024-02-29T23:21:26.365Z,14.90
2024-02-29T23:23:53.474Z,17.23
2024-02-29T23:26:22.237Z,15.15
2024-02-29T23:28:49.440Z,15.77
2024-02-29T23:31:17.618Z,13.50
2024-02-29T23:33:44.812Z,15.48
2024-02-29T23:36:11.920Z,14.85
2024-02-29T23:38:38.995Z,14.07
2024-02-29T23:41:06.168Z,14.15
2024-02-29T23:43:33.417Z,15.02
2024-02-29T23:46:00.873Z,10.75
2024-02-29T23:48:27.967Z,11.32
2024-02-29T23:50:55.065Z,12.55
2024-02-29T23:53:22.131Z,12.18
2024-02-29T23:55:49.199Z,14.65
2024-02-29T23:58:16.324Z,13.00
